Air Navigation Services of Czech Republic
Airport: LKKV Updated:  04.06.2020 11:30:26  UTC
 METAR LKKV 04.06. 11:30 ...
METAR LKKV 041130Z 14004KT 110V170 9999 -RA SCT008 SCT020 14/13 Q0998 RMK REG QNH 0995=
 TAF LKKV 04.06. 11:00 ...
TAF LKKV 041100Z 0412/0518 24008KT 9999 SCT036      TEMPO 0412/0518 7000 SHRA BKN026      PROB30 TEMPO 0412/0421 3000 TSRA SCT012CB BKN014      PROB30 TEMPO 0421/0518 SCT020TCU=